createdAt,value
2017-07-10T00:01:40.775Z,2.10
2017-07-10T00:04:07.254Z,2.10
2017-07-10T00:06:34.465Z,2.57
2017-07-10T00:09:00.999Z,2.30
2017-07-10T00:11:27.502Z,3.17
2017-07-10T00:13:53.957Z,2.00
2017-07-10T00:16:20.458Z,2.23
2017-07-10T00:18:46.943Z,2.13
2017-07-10T00:21:13.429Z,3.00
2017-07-10T00:23:39.932Z,2.80
2017-07-10T00:26:07.155Z,3.70
2017-07-10T00:28:33.657Z,2.73
2017-07-10T00:31:00.131Z,2.43
2017-07-10T00:33:26.664Z,4.00
2017-07-10T00:35:53.172Z,2.20
2017-07-10T00:38:19.627Z,2.73
2017-07-10T00:40:46.119Z,2.70
2017-07-10T00:43:12.594Z,3.93
2017-07-10T00:45:39.302Z,2.50
2017-07-10T00:48:05.818Z,2.87
2017-07-10T00:50:32.298Z,2.63
2017-07-10T00:52:58.788Z,1.67
2017-07-10T00:55:25.273Z,2.27
2017-07-10T00:57:52.694Z,2.50
2017-07-10T01:00:19.182Z,2.47
2017-07-10T01:02:45.655Z,2.10
2017-07-10T01:05:12.173Z,2.00
2017-07-10T01:07:38.662Z,2.30
2017-07-10T01:10:05.933Z,2.10
2017-07-10T01:12:32.572Z,2.70
2017-07-10T01:14:59.041Z,2.37
2017-07-10T01:17:25.518Z,3.07
2017-07-10T01:19:52.034Z,3.20
2017-07-10T01:22:18.499Z,2.33
2017-07-10T01:24:45.019Z,2.20
2017-07-10T01:27:12.228Z,3.10
2017-07-10T01:29:38.767Z,1.70
2017-07-10T01:32:05.253Z,2.27
2017-07-10T01:34:31.781Z,2.67
2017-07-10T01:36:58.325Z,2.30
2017-07-10T01:39:24.878Z,2.43
2017-07-10T01:41:51.395Z,2.20
2017-07-10T01:44:17.915Z,2.50
2017-07-10T01:46:44.409Z,1.93
2017-07-10T01:49:10.945Z,3.43
2017-07-10T01:51:37.482Z,2.40
2017-07-10T01:54:04.002Z,2.40
2017-07-10T01:56:30.453Z,2.43
2017-07-10T01:58:57.970Z,2.90
2017-07-10T02:01:24.443Z,2.40
2017-07-10T02:03:51.676Z,2.20
2017-07-10T02:06:18.193Z,2.53
2017-07-10T02:08:44.668Z,2.20
2017-07-10T02:11:11.923Z,1.90
2017-07-10T02:13:39.202Z,1.90
2017-07-10T02:16:05.702Z,2.00
2017-07-10T02:18:32.952Z,2.53
2017-07-10T02:21:00.156Z,2.20
2017-07-10T02:23:26.679Z,2.00
2017-07-10T02:25:53.176Z,2.17
2017-07-10T02:28:19.659Z,2.40
2017-07-10T02:30:46.174Z,1.97
2017-07-10T02:33:12.633Z,1.90
2017-07-10T02:35:39.133Z,2.07
2017-07-10T02:38:05.621Z,2.30
2017-07-10T02:40:32.874Z,1.63
2017-07-10T02:43:00.101Z,1.83
2017-07-10T02:45:26.591Z,2.17
2017-07-10T02:47:53.076Z,1.80
2017-07-10T02:50:19.537Z,2.07
2017-07-10T02:52:46.055Z,2.27
2017-07-10T02:55:13.264Z,2.23
2017-07-10T02:57:46.978Z,2.57
2017-07-10T03:00:13.454Z,2.60
2017-07-10T03:02:39.941Z,1.87
2017-07-10T03:05:06.450Z,2.13
2017-07-10T03:07:32.910Z,1.73
2017-07-10T03:09:59.447Z,2.70
2017-07-10T03:12:25.979Z,1.80
2017-07-10T03:14:52.482Z,2.00
2017-07-10T03:17:19.006Z,2.30
2017-07-10T03:19:45.483Z,2.40
2017-07-10T03:22:12.045Z,2.30
2017-07-10T03:24:39.275Z,2.30
2017-07-10T03:27:05.776Z,2.93
2017-07-10T03:29:32.411Z,1.80
2017-07-10T03:31:58.899Z,2.17
2017-07-10T03:34:25.374Z,2.10
2017-07-10T03:36:51.891Z,3.47
2017-07-10T03:39:18.447Z,2.83
2017-07-10T03:41:44.931Z,3.13
2017-07-10T03:44:11.463Z,2.77
2017-07-10T03:46:37.946Z,2.20
2017-07-10T03:49:04.462Z,2.90
2017-07-10T03:51:31.002Z,2.40
2017-07-10T03:53:57.477Z,3.23
2017-07-10T03:56:23.970Z,5.10
2017-07-10T03:58:50.456Z,2.37
2017-07-10T04:01:17.703Z,2.60
2017-07-10T04:03:44.932Z,3.23
2017-07-10T04:06:11.449Z,3.20
2017-07-10T04:08:37.933Z,2.57
2017-07-10T04:11:04.458Z,2.50
2017-07-10T04:13:31.748Z,2.40
2017-07-10T04:15:58.207Z,2.67
2017-07-10T04:18:24.932Z,2.80
2017-07-10T04:20:51.451Z,3.67
2017-07-10T04:23:17.926Z,2.83
2017-07-10T04:25:44.449Z,3.07
2017-07-10T04:28:10.941Z,2.90
2017-07-10T04:30:37.702Z,2.80
2017-07-10T04:33:04.215Z,2.60
2017-07-10T04:35:30.674Z,3.90
2017-07-10T04:37:57.349Z,3.33
2017-07-10T04:40:24.558Z,3.80
2017-07-10T04:42:51.054Z,2.63
2017-07-10T04:45:17.587Z,5.40
2017-07-10T04:47:44.117Z,4.13
2017-07-10T04:50:10.630Z,2.50
2017-07-10T04:52:37.853Z,2.70
2017-07-10T04:55:04.390Z,2.93
2017-07-10T04:57:30.846Z,4.07
2017-07-10T04:59:57.365Z,4.00
2017-07-10T05:02:24.576Z,3.03
2017-07-10T05:04:51.050Z,3.77
2017-07-10T05:07:18.453Z,3.30
2017-07-10T05:09:44.941Z,4.03
2017-07-10T05:12:11.408Z,3.10
2017-07-10T05:14:37.971Z,2.90
2017-07-10T05:17:04.454Z,3.33
2017-07-10T05:19:30.952Z,2.90
2017-07-10T05:21:57.424Z,3.10
2017-07-10T05:24:23.939Z,3.97
2017-07-10T05:26:51.310Z,5.03
2017-07-10T05:29:17.773Z,3.90
2017-07-10T05:31:44.258Z,3.57
2017-07-10T05:34:11.525Z,3.10
2017-07-10T05:36:38.028Z,3.70
2017-07-10T05:39:04.542Z,3.57
2017-07-10T05:41:30.993Z,3.03
2017-07-10T05:43:58.251Z,2.70
2017-07-10T05:46:24.760Z,3.10
2017-07-10T05:48:51.282Z,3.03
2017-07-10T05:51:17.771Z,2.70
2017-07-10T05:53:44.317Z,2.93
2017-07-10T05:56:10.829Z,3.53
2017-07-10T05:58:37.306Z,2.50
2017-07-10T06:01:03.855Z,2.90
2017-07-10T06:03:30.328Z,2.40
2017-07-10T06:05:56.811Z,2.40
2017-07-10T06:08:23.308Z,3.27
2017-07-10T06:10:49.869Z,3.00
2017-07-10T06:13:16.399Z,3.57
2017-07-10T06:15:42.939Z,2.67
2017-07-10T06:18:09.438Z,3.37
2017-07-10T06:20:35.914Z,3.10
2017-07-10T06:23:02.398Z,3.00
2017-07-10T06:25:28.957Z,2.90
2017-07-10T06:27:55.437Z,3.50
2017-07-10T06:30:21.959Z,2.80
2017-07-10T06:32:48.407Z,2.50
2017-07-10T06:35:15.621Z,2.83
2017-07-10T06:37:42.113Z,2.63
2017-07-10T06:40:08.591Z,2.10
2017-07-10T06:42:35.117Z,2.77
2017-07-10T06:45:01.604Z,3.17
2017-07-10T06:47:28.073Z,3.33
2017-07-10T06:49:54.594Z,2.77
2017-07-10T06:52:21.061Z,2.80
2017-07-10T06:54:47.558Z,2.10
2017-07-10T06:57:14.025Z,2.70
2017-07-10T06:59:40.520Z,3.23
2017-07-10T07:02:06.978Z,3.10
2017-07-10T07:04:33.473Z,2.33
2017-07-10T07:06:59.951Z,3.20
2017-07-10T07:09:26.484Z,3.07
2017-07-10T07:11:52.941Z,2.83
2017-07-10T07:14:20.196Z,2.53
2017-07-10T07:16:47.474Z,2.63
2017-07-10T07:19:13.944Z,2.93
2017-07-10T07:21:40.423Z,3.47
2017-07-10T07:24:07.690Z,3.37
2017-07-10T07:26:34.160Z,2.53
2017-07-10T07:29:00.629Z,1.93
2017-07-10T07:31:28.033Z,2.50
2017-07-10T07:33:54.515Z,2.87
2017-07-10T07:36:21.771Z,2.50
2017-07-10T07:38:48.302Z,2.40
2017-07-10T07:41:15.514Z,2.57
2017-07-10T07:43:42.053Z,2.30
2017-07-10T07:46:08.523Z,2.63
2017-07-10T07:48:35.007Z,2.00
2017-07-10T07:51:01.526Z,2.20
2017-07-10T07:53:28.021Z,2.10
2017-07-10T07:55:55.318Z,2.10
2017-07-10T07:58:21.781Z,1.67
2017-07-10T08:00:48.274Z,2.27
2017-07-10T08:03:14.810Z,1.83
2017-07-10T08:05:41.307Z,2.03
2017-07-10T08:08:07.817Z,2.50
2017-07-10T08:10:35.035Z,1.93
2017-07-10T08:13:01.501Z,1.73
2017-07-10T08:15:28.771Z,2.40
2017-07-10T08:17:55.284Z,2.20
2017-07-10T08:20:22.533Z,2.50
2017-07-10T08:22:50.861Z,2.10
2017-07-10T08:25:17.522Z,2.13
2017-07-10T08:27:44.000Z,1.90
2017-07-10T08:30:10.495Z,2.73
2017-07-10T08:32:37.224Z,2.23
2017-07-10T08:35:03.731Z,1.90
2017-07-10T08:37:30.214Z,1.77
2017-07-10T08:39:57.477Z,2.10
2017-07-10T08:42:24.727Z,1.60
2017-07-10T08:44:51.953Z,2.10
2017-07-10T08:47:18.456Z,2.30
2017-07-10T08:49:44.933Z,2.00
2017-07-10T08:52:12.169Z,1.93
2017-07-10T08:54:38.637Z,2.13
2017-07-10T08:57:05.410Z,1.80
2017-07-10T08:59:31.886Z,1.67
2017-07-10T09:01:58.377Z,2.63
2017-07-10T09:04:24.922Z,2.10
2017-07-10T09:06:51.388Z,2.13
2017-07-10T09:09:17.891Z,1.90
2017-07-10T09:11:44.606Z,1.97
2017-07-10T09:14:11.113Z,1.80
2017-07-10T09:16:37.626Z,1.90
2017-07-10T09:19:05.151Z,1.80
2017-07-10T09:21:31.653Z,1.37
2017-07-10T09:23:58.126Z,1.73
2017-07-10T09:26:24.627Z,1.90
2017-07-10T09:28:51.122Z,2.00
2017-07-10T09:31:17.629Z,1.90
2017-07-10T09:33:44.090Z,1.83
2017-07-10T09:36:10.622Z,1.80
2017-07-10T09:38:37.090Z,2.47
2017-07-10T09:41:03.593Z,1.40
2017-07-10T09:43:30.134Z,1.50
2017-07-10T09:45:56.618Z,1.70
2017-07-10T09:48:23.129Z,2.10
2017-07-10T09:50:49.606Z,1.77
2017-07-10T09:53:16.816Z,1.77
2017-07-10T09:55:44.107Z,1.97
2017-07-10T09:58:11.310Z,1.80
2017-07-10T10:00:37.775Z,1.63
2017-07-10T10:03:04.285Z,1.37
2017-07-10T10:05:30.755Z,1.97
2017-07-10T10:07:58.142Z,1.63
2017-07-10T10:10:24.597Z,1.47
2017-07-10T10:12:51.074Z,1.57
2017-07-10T10:15:18.574Z,2.40
2017-07-10T10:17:45.095Z,1.67
2017-07-10T10:20:11.596Z,2.10
2017-07-10T10:22:38.840Z,1.67
2017-07-10T10:25:06.046Z,1.80
2017-07-10T10:27:32.588Z,1.90
2017-07-10T10:29:59.072Z,2.20
2017-07-10T10:32:25.841Z,1.37
2017-07-10T10:34:52.320Z,2.27
2017-07-10T10:37:18.837Z,1.50
2017-07-10T10:39:45.414Z,2.10
2017-07-10T10:42:11.889Z,1.90
2017-07-10T10:44:38.413Z,2.00
2017-07-10T10:47:04.883Z,2.13
2017-07-10T10:49:32.115Z,1.90
2017-07-10T10:51:58.635Z,1.60
2017-07-10T10:54:25.126Z,1.70
2017-07-10T10:56:51.803Z,2.60
2017-07-10T10:59:18.328Z,2.10
2017-07-10T11:01:44.852Z,1.70
2017-07-10T11:04:11.358Z,1.60
2017-07-10T11:06:37.819Z,2.60
2017-07-10T11:09:04.313Z,2.77
2017-07-10T11:11:31.538Z,3.13
2017-07-10T11:13:58.176Z,3.07
2017-07-10T11:16:24.696Z,2.97
2017-07-10T11:18:51.187Z,2.23
2017-07-10T11:21:17.678Z,2.97
2017-07-10T11:23:44.149Z,3.07
2017-07-10T11:26:10.708Z,2.67
2017-07-10T11:28:37.190Z,2.43
2017-07-10T11:31:04.504Z,2.50
2017-07-10T11:33:31.003Z,3.03
2017-07-10T11:35:57.480Z,3.27
2017-07-10T11:38:23.957Z,2.60
2017-07-10T11:40:50.435Z,3.70
2017-07-10T11:43:16.948Z,3.63
2017-07-10T11:45:43.445Z,2.43
2017-07-10T11:48:09.919Z,3.73
2017-07-10T11:50:36.372Z,2.60
2017-07-10T11:53:02.858Z,2.50
2017-07-10T11:55:29.375Z,2.90
2017-07-10T11:57:56.573Z,3.30
2017-07-10T12:00:23.155Z,2.77
2017-07-10T12:02:50.367Z,3.27
2017-07-10T12:05:16.873Z,2.63
2017-07-10T12:07:43.378Z,2.70
2017-07-10T12:10:09.882Z,3.47
2017-07-10T12:12:36.391Z,3.10
2017-07-10T12:15:02.884Z,3.30
2017-07-10T12:17:29.378Z,3.20
2017-07-10T12:19:55.883Z,3.60
2017-07-10T12:22:22.349Z,3.07
2017-07-10T12:24:48.879Z,4.30
2017-07-10T12:27:15.385Z,3.10
2017-07-10T12:29:41.872Z,3.40
2017-07-10T12:32:08.397Z,3.37
2017-07-10T12:34:35.642Z,2.60
2017-07-10T12:37:02.873Z,2.77
2017-07-10T12:39:29.350Z,3.33
2017-07-10T12:41:56.010Z,3.10
2017-07-10T12:44:22.511Z,3.80
2017-07-10T12:46:48.985Z,3.40
2017-07-10T12:49:15.512Z,3.10
2017-07-10T12:51:42.007Z,3.17
2017-07-10T12:54:08.509Z,3.37
2017-07-10T12:56:34.980Z,3.70
2017-07-10T12:59:01.507Z,2.40
2017-07-10T13:01:28.711Z,4.27
2017-07-10T13:03:55.235Z,3.10
2017-07-10T13:06:21.682Z,2.60
2017-07-10T13:08:48.141Z,3.73
2017-07-10T13:11:15.416Z,3.63
2017-07-10T13:13:41.925Z,4.87
2017-07-10T13:16:09.236Z,3.10
2017-07-10T13:18:35.699Z,2.87
2017-07-10T13:21:03.224Z,4.60
2017-07-10T13:23:29.717Z,3.63
2017-07-10T13:25:56.197Z,4.27
2017-07-10T13:28:22.726Z,4.73
2017-07-10T13:30:49.259Z,3.53
2017-07-10T13:33:15.768Z,2.90
2017-07-10T13:35:42.433Z,3.40
2017-07-10T13:38:08.915Z,3.57
2017-07-10T13:40:35.396Z,2.67
2017-07-10T13:43:01.915Z,3.27
2017-07-10T13:45:28.377Z,3.37
2017-07-10T13:47:54.907Z,2.60
2017-07-10T13:50:21.406Z,2.67
2017-07-10T13:52:47.923Z,3.83
2017-07-10T13:55:14.417Z,2.60
2017-07-10T13:57:40.932Z,3.10
2017-07-10T14:00:07.566Z,2.97
2017-07-10T14:02:34.013Z,3.13
2017-07-10T14:05:00.518Z,3.10
2017-07-10T14:07:27.036Z,3.50
2017-07-10T14:09:53.530Z,3.23
2017-07-10T14:12:20.945Z,3.90
2017-07-10T14:14:47.434Z,3.00
2017-07-10T14:17:13.951Z,2.83
2017-07-10T14:19:41.193Z,3.03
2017-07-10T14:22:08.446Z,3.30
2017-07-10T14:24:35.646Z,3.20
2017-07-10T14:27:02.184Z,3.07
2017-07-10T14:29:28.653Z,3.87
2017-07-10T14:31:55.119Z,3.50
2017-07-10T14:34:21.634Z,3.00
2017-07-10T14:36:48.851Z,2.80
2017-07-10T14:39:15.410Z,2.73
2017-07-10T14:41:42.637Z,3.40
2017-07-10T14:44:09.138Z,3.90
2017-07-10T14:46:35.665Z,2.90
2017-07-10T14:49:02.147Z,3.60
2017-07-10T14:51:29.421Z,3.53
2017-07-10T14:53:56.650Z,3.87
2017-07-10T14:56:23.126Z,2.93
2017-07-10T14:58:49.883Z,3.43
2017-07-10T15:01:16.353Z,3.27
2017-07-10T15:03:42.815Z,3.33
2017-07-10T15:06:09.321Z,3.53
2017-07-10T15:08:36.024Z,3.97
2017-07-10T15:11:02.500Z,5.83
2017-07-10T15:13:29.729Z,4.67
2017-07-10T15:15:56.333Z,3.70
2017-07-10T15:18:22.825Z,3.13
2017-07-10T15:20:50.033Z,3.20
2017-07-10T15:23:16.561Z,4.17
2017-07-10T15:25:43.033Z,3.10
2017-07-10T15:28:10.291Z,3.23
2017-07-10T15:30:37.503Z,3.20
2017-07-10T15:33:04.217Z,3.17
2017-07-10T15:35:30.709Z,2.63
2017-07-10T15:37:57.927Z,3.90
2017-07-10T15:40:24.439Z,3.40
2017-07-10T15:42:50.962Z,3.37
2017-07-10T15:45:17.606Z,2.50
2017-07-10T15:47:44.075Z,3.17
2017-07-10T15:50:10.543Z,3.70
2017-07-10T15:52:37.061Z,3.53
2017-07-10T15:55:03.540Z,3.60
2017-07-10T15:57:30.086Z,3.27
2017-07-10T15:59:56.543Z,2.67
2017-07-10T16:02:23.971Z,2.60
2017-07-10T16:04:50.443Z,2.70
2017-07-10T16:07:17.653Z,2.73
2017-07-10T16:09:44.326Z,2.30
2017-07-10T16:12:11.550Z,2.53
2017-07-10T16:14:38.033Z,2.43
2017-07-10T16:17:04.789Z,2.50
2017-07-10T16:19:31.291Z,2.60
2017-07-10T16:21:57.748Z,2.70
2017-07-10T16:24:24.355Z,2.20
2017-07-10T16:26:50.849Z,2.23
2017-07-10T16:29:17.352Z,2.07
2017-07-10T16:31:43.897Z,2.70
2017-07-10T16:34:10.367Z,2.73
2017-07-10T16:36:37.652Z,2.60
2017-07-10T16:39:04.149Z,2.43
2017-07-10T16:41:31.371Z,2.90
2017-07-10T16:43:57.881Z,3.10
2017-07-10T16:46:24.383Z,3.10
2017-07-10T16:48:50.854Z,2.83
2017-07-10T16:51:17.382Z,3.33
2017-07-10T16:53:43.862Z,2.40
2017-07-10T16:56:11.102Z,2.30
2017-07-10T16:58:37.562Z,2.20
2017-07-10T17:01:04.131Z,2.73
2017-07-10T17:03:30.594Z,2.20
2017-07-10T17:05:57.201Z,3.30
2017-07-10T17:08:23.715Z,3.30
2017-07-10T17:10:50.217Z,2.60
2017-07-10T17:13:17.647Z,2.00
2017-07-10T17:15:44.132Z,2.40
2017-07-10T17:18:10.657Z,2.40
2017-07-10T17:20:37.254Z,1.90
2017-07-10T17:23:03.743Z,1.70
2017-07-10T17:25:30.226Z,2.67
2017-07-10T17:27:56.760Z,1.90
2017-07-10T17:30:23.244Z,2.37
2017-07-10T17:32:49.895Z,2.20
2017-07-10T17:35:16.373Z,2.17
2017-07-10T17:37:43.608Z,2.00
2017-07-10T17:40:10.161Z,2.70
2017-07-10T17:42:36.664Z,2.43
2017-07-10T17:45:03.186Z,2.70
2017-07-10T17:47:29.693Z,2.43
2017-07-10T17:49:56.201Z,2.80
2017-07-10T17:52:22.866Z,2.70
2017-07-10T17:54:49.360Z,2.37
2017-07-10T17:57:16.582Z,2.93
2017-07-10T17:59:43.195Z,2.80
2017-07-10T18:02:09.800Z,2.40
2017-07-10T18:04:36.291Z,2.83
2017-07-10T18:07:02.963Z,2.07
2017-07-10T18:09:29.458Z,3.03
2017-07-10T18:11:55.957Z,3.10
2017-07-10T18:14:22.445Z,2.73
2017-07-10T18:16:49.756Z,4.50
2017-07-10T18:19:16.222Z,5.00
2017-07-10T18:21:43.482Z,4.83
2017-07-10T18:24:10.717Z,3.97
2017-07-10T18:26:37.224Z,3.70
2017-07-10T18:29:03.775Z,3.40
2017-07-10T18:31:30.295Z,3.33
2017-07-10T18:33:56.947Z,3.93
2017-07-10T18:36:23.444Z,4.07
2017-07-10T18:38:49.951Z,2.70
2017-07-10T18:41:16.592Z,3.20
2017-07-10T18:43:43.057Z,4.30
2017-07-10T18:46:09.548Z,3.63
2017-07-10T18:48:36.128Z,4.50
2017-07-10T18:51:02.625Z,5.50
2017-07-10T18:53:29.229Z,3.27
2017-07-10T18:55:56.586Z,3.53
2017-07-10T18:58:24.352Z,2.80
2017-07-10T19:00:50.859Z,3.00
2017-07-10T19:03:17.365Z,3.60
2017-07-10T19:05:43.969Z,2.90
2017-07-10T19:08:10.544Z,5.13
2017-07-10T19:10:37.101Z,5.10
2017-07-10T19:13:03.734Z,4.90
2017-07-10T19:15:31.307Z,4.23
2017-07-10T19:17:58.804Z,4.63
2017-07-10T19:20:25.474Z,4.47
2017-07-10T19:22:52.034Z,3.23
2017-07-10T19:25:19.560Z,3.80
2017-07-10T19:27:46.297Z,3.63
2017-07-10T19:30:13.479Z,4.60
2017-07-10T19:32:40.577Z,3.60
2017-07-10T19:35:07.783Z,3.10
2017-07-10T19:37:34.706Z,5.57
2017-07-10T19:40:02.372Z,5.47
2017-07-10T19:42:29.782Z,5.03
2017-07-10T19:44:56.346Z,5.43
2017-07-10T19:47:23.036Z,4.27
2017-07-10T19:49:50.150Z,4.63
2017-07-10T19:52:17.197Z,3.60
2017-07-10T19:54:44.138Z,5.00
2017-07-10T19:57:12.004Z,3.30
2017-07-10T19:59:39.253Z,7.00
2017-07-10T20:02:05.827Z,6.80
2017-07-10T20:04:32.481Z,4.40
2017-07-10T20:06:59.102Z,3.57
2017-07-10T20:09:25.758Z,3.00
2017-07-10T20:11:52.331Z,3.63
2017-07-10T20:14:19.695Z,3.60
2017-07-10T20:16:46.218Z,3.00
2017-07-10T20:19:13.884Z,3.60
2017-07-10T20:21:40.394Z,3.30
2017-07-10T20:24:06.954Z,3.43
2017-07-10T20:26:34.233Z,3.10
2017-07-10T20:29:00.692Z,2.77
2017-07-10T20:31:27.149Z,2.47
2017-07-10T20:33:54.474Z,2.90
2017-07-10T20:36:20.987Z,3.23
2017-07-10T20:38:47.467Z,2.87
2017-07-10T20:41:13.958Z,2.60
2017-07-10T20:43:40.490Z,2.83
2017-07-10T20:46:06.959Z,2.53
2017-07-10T20:48:40.578Z,2.70
2017-07-10T20:51:07.813Z,2.73
2017-07-10T20:53:34.290Z,2.97
2017-07-10T20:56:00.809Z,3.00
2017-07-10T20:58:27.285Z,2.30
2017-07-10T21:00:53.818Z,2.47
2017-07-10T21:03:20.285Z,2.57
2017-07-10T21:05:47.702Z,2.63
2017-07-10T21:08:14.161Z,2.50
2017-07-10T21:10:40.620Z,6.03
2017-07-10T21:13:07.147Z,7.00
2017-07-10T21:15:34.361Z,4.87
2017-07-10T21:18:00.962Z,3.73
2017-07-10T21:20:27.455Z,3.03
2017-07-10T21:22:54.708Z,3.13
2017-07-10T21:25:21.929Z,2.20
2017-07-10T21:27:48.404Z,2.57
2017-07-10T21:30:15.689Z,1.97
2017-07-10T21:32:42.179Z,2.10
2017-07-10T21:35:09.389Z,3.43
2017-07-10T21:37:35.877Z,2.40
2017-07-10T21:40:02.364Z,2.70
2017-07-10T21:42:29.094Z,2.13
2017-07-10T21:44:55.559Z,2.40
2017-07-10T21:47:22.752Z,1.93
2017-07-10T21:49:49.343Z,2.87
2017-07-10T21:52:16.580Z,2.20
2017-07-10T21:54:43.106Z,1.70
2017-07-10T21:57:09.622Z,2.20
2017-07-10T21:59:36.097Z,2.60
2017-07-10T22:02:03.469Z,1.97
2017-07-10T22:04:29.940Z,2.07
2017-07-10T22:06:56.432Z,2.40
2017-07-10T22:09:23.349Z,2.53
2017-07-10T22:11:50.570Z,1.80
2017-07-10T22:14:17.302Z,3.53
2017-07-10T22:16:43.775Z,2.60
2017-07-10T22:19:10.291Z,2.20
2017-07-10T22:21:37.006Z,2.67
2017-07-10T22:24:03.498Z,2.60
2017-07-10T22:26:29.977Z,2.40
2017-07-10T22:28:56.507Z,1.70
2017-07-10T22:31:23.007Z,2.27
2017-07-10T22:33:49.535Z,1.53
2017-07-10T22:36:16.011Z,2.83
2017-07-10T22:38:42.526Z,2.43
2017-07-10T22:41:09.001Z,2.20
2017-07-10T22:43:36.256Z,2.30
2017-07-10T22:46:03.494Z,2.30
2017-07-10T22:48:29.961Z,2.50
2017-07-10T22:50:56.498Z,2.37
2017-07-10T22:53:23.004Z,2.53
2017-07-10T22:55:50.217Z,2.20
2017-07-10T22:58:16.715Z,2.40
2017-07-10T23:00:43.190Z,1.90
2017-07-10T23:03:09.708Z,2.23
2017-07-10T23:05:36.199Z,2.10
2017-07-10T23:08:02.659Z,1.70
2017-07-10T23:10:29.170Z,2.33
2017-07-10T23:12:55.655Z,2.80
2017-07-10T23:15:22.125Z,2.60
2017-07-10T23:17:49.367Z,2.20
2017-07-10T23:20:16.582Z,2.33
2017-07-10T23:22:43.912Z,2.30
2017-07-10T23:25:10.417Z,2.77
2017-07-10T23:27:36.887Z,2.37
2017-07-10T23:30:03.616Z,2.83
2017-07-10T23:32:30.129Z,2.47
2017-07-10T23:34:57.350Z,2.30
2017-07-10T23:37:24.618Z,2.00
2017-07-10T23:39:51.089Z,3.00
2017-07-10T23:42:17.579Z,1.80
2017-07-10T23:44:44.122Z,1.77
2017-07-10T23:47:10.600Z,1.67
2017-07-10T23:49:37.112Z,1.93
2017-07-10T23:52:03.608Z,1.60
2017-07-10T23:54:30.820Z,1.60
2017-07-10T23:56:57.347Z,1.90
2017-07-10T23:59:23.809Z,1.70
